sensor_id;sensor_type;location;lat;lon;timestamp;pressure;altitude;pressure_sealevel;temperature;humidity
16331;BME280;8275;48.206;16.340;2023-10-08T00:01:30;99316.53;;;24.75;24.76
16331;BME280;8275;48.206;16.340;2023-10-08T00:04:02;99312.78;;;24.71;24.82
16331;BME280;8275;48.206;16.340;2023-10-08T00:06:32;99313.16;;;24.70;24.75
16331;BME280;8275;48.206;16.340;2023-10-08T00:09:01;99305.44;;;24.67;24.87
16331;BME280;8275;48.206;16.340;2023-10-08T00:11:35;99309.75;;;24.64;24.94
16331;BME280;8275;48.206;16.340;2023-10-08T00:14:04;99308.94;;;24.64;24.88
16331;BME280;8275;48.206;16.340;2023-10-08T00:16:37;99306.13;;;24.64;24.94
16331;BME280;8275;48.206;16.340;2023-10-08T00:19:08;99309.75;;;24.64;25.07
16331;BME280;8275;48.206;16.340;2023-10-08T00:21:40;99291.31;;;24.63;24.98
16331;BME280;8275;48.206;16.340;2023-10-08T00:24:11;99301.34;;;24.64;25.09
16331;BME280;8275;48.206;16.340;2023-10-08T00:26:40;99287.34;;;24.64;25.21
16331;BME280;8275;48.206;16.340;2023-10-08T00:29:10;99286.50;;;24.64;25.15
16331;BME280;8275;48.206;16.340;2023-10-08T00:31:45;99289.81;;;24.66;25.16
16331;BME280;8275;48.206;16.340;2023-10-08T00:34:16;99284.69;;;24.68;25.28
16331;BME280;8275;48.206;16.340;2023-10-08T00:36:48;99275.56;;;24.71;25.28
16331;BME280;8275;48.206;16.340;2023-10-08T00:39:17;99284.91;;;24.75;25.14
16331;BME280;8275;48.206;16.340;2023-10-08T00:41:51;99269.88;;;24.79;25.01
16331;BME280;8275;48.206;16.340;2023-10-08T00:44:25;99276.41;;;24.83;25.24
16331;BME280;8275;48.206;16.340;2023-10-08T00:46:57;99270.13;;;24.86;25.03
16331;BME280;8275;48.206;16.340;2023-10-08T00:49:30;99263.47;;;24.91;24.93
16331;BME280;8275;48.206;16.340;2023-10-08T00:52:15;99273.94;;;24.94;24.86
16331;BME280;8275;48.206;16.340;2023-10-08T00:55:05;99274.78;;;24.94;24.89
16331;BME280;8275;48.206;16.340;2023-10-08T00:57:48;99290.06;;;24.97;24.85
16331;BME280;8275;48.206;16.340;2023-10-08T01:00:20;99284.94;;;24.99;24.77
16331;BME280;8275;48.206;16.340;2023-10-08T01:02:50;99294.63;;;25.01;24.58
16331;BME280;8275;48.206;16.340;2023-10-08T01:05:29;99292.28;;;25.03;24.62
16331;BME280;8275;48.206;16.340;2023-10-08T01:08:14;99280.72;;;25.05;24.75
16331;BME280;8275;48.206;16.340;2023-10-08T01:10:49;99284.69;;;25.04;24.71
16331;BME280;8275;48.206;16.340;2023-10-08T01:13:31;99293.94;;;25.04;24.76
16331;BME280;8275;48.206;16.340;2023-10-08T01:16:10;99291.47;;;25.03;24.75
16331;BME280;8275;48.206;16.340;2023-10-08T01:18:39;99269.88;;;25.03;24.62
16331;BME280;8275;48.206;16.340;2023-10-08T01:21:17;99273.84;;;25.02;24.61
16331;BME280;8275;48.206;16.340;2023-10-08T01:24:03;99273.84;;;25.02;24.68
16331;BME280;8275;48.206;16.340;2023-10-08T01:26:34;99237.06;;;25.04;24.74
16331;BME280;8275;48.206;16.340;2023-10-08T01:29:09;99254.22;;;25.02;24.69
16331;BME280;8275;48.206;16.340;2023-10-08T01:31:46;99251.06;;;25.04;24.70
16331;BME280;8275;48.206;16.340;2023-10-08T01:34:17;99263.91;;;25.05;24.82
16331;BME280;8275;48.206;16.340;2023-10-08T01:36:46;99264.72;;;25.05;24.75
16331;BME280;8275;48.206;16.340;2023-10-08T01:39:17;99264.72;;;25.05;24.72
16331;BME280;8275;48.206;16.340;2023-10-08T01:41:46;99276.75;;;25.06;24.90
16331;BME280;8275;48.206;16.340;2023-10-08T01:44:15;99272.31;;;25.05;25.03
16331;BME280;8275;48.206;16.340;2023-10-08T01:46:44;99270.69;;;25.04;24.87
16331;BME280;8275;48.206;16.340;2023-10-08T01:49:17;99258.28;;;25.05;24.86
16331;BME280;8275;48.206;16.340;2023-10-08T01:51:51;99261.09;;;25.05;24.76
16331;BME280;8275;48.206;16.340;2023-10-08T01:54:22;99269.50;;;25.05;24.84
16331;BME280;8275;48.206;16.340;2023-10-08T01:56:53;99275.94;;;25.05;24.75
16331;BME280;8275;48.206;16.340;2023-10-08T01:59:21;99272.31;;;25.05;24.73
16331;BME280;8275;48.206;16.340;2023-10-08T02:01:51;99272.31;;;25.05;24.75
16331;BME280;8275;48.206;16.340;2023-10-08T02:04:22;99270.31;;;25.05;24.72
16331;BME280;8275;48.206;16.340;2023-10-08T02:06:52;99257.50;;;25.04;24.65
16331;BME280;8275;48.206;16.340;2023-10-08T02:09:22;99274.31;;;25.04;24.74
16331;BME280;8275;48.206;16.340;2023-10-08T02:11:53;99260.31;;;25.04;24.49
16331;BME280;8275;48.206;16.340;2023-10-08T02:14:22;99265.09;;;25.04;24.58
16331;BME280;8275;48.206;16.340;2023-10-08T02:16:51;99259.00;;;25.02;24.64
16331;BME280;8275;48.206;16.340;2023-10-08T02:19:23;99261.34;;;25.00;24.63
16331;BME280;8275;48.206;16.340;2023-10-08T02:21:56;99272.09;;;24.98;24.71
16331;BME280;8275;48.206;16.340;2023-10-08T02:24:27;99270.47;;;24.97;24.76
16331;BME280;8275;48.206;16.340;2023-10-08T02:26:57;99269.16;;;24.94;24.72
16331;BME280;8275;48.206;16.340;2023-10-08T02:29:29;99254.22;;;24.90;24.78
16331;BME280;8275;48.206;16.340;2023-10-08T02:31:58;99257.72;;;24.87;24.90
16331;BME280;8275;48.206;16.340;2023-10-08T02:34:27;99256.81;;;24.83;24.95
16331;BME280;8275;48.206;16.340;2023-10-08T02:36:57;99265.56;;;24.82;25.13
16331;BME280;8275;48.206;16.340;2023-10-08T02:39:28;99259.84;;;24.78;25.12
16331;BME280;8275;48.206;16.340;2023-10-08T02:41:57;99261.34;;;24.76;25.05
16331;BME280;8275;48.206;16.340;2023-10-08T02:44:27;99264.00;;;24.72;25.00
16331;BME280;8275;48.206;16.340;2023-10-08T02:46:56;99259.09;;;24.69;25.19
16331;BME280;8275;48.206;16.340;2023-10-08T02:49:24;99256.19;;;24.66;25.35
16331;BME280;8275;48.206;16.340;2023-10-08T02:51:57;99261.31;;;24.64;25.49
16331;BME280;8275;48.206;16.340;2023-10-08T02:54:27;99260.84;;;24.62;25.58
16331;BME280;8275;48.206;16.340;2023-10-08T02:57:04;99254.41;;;24.61;25.47
16331;BME280;8275;48.206;16.340;2023-10-08T02:59:41;99257.22;;;24.61;25.66
16331;BME280;8275;48.206;16.340;2023-10-08T03:02:13;99259.22;;;24.61;25.85
16331;BME280;8275;48.206;16.340;2023-10-08T03:04:47;99248.03;;;24.61;25.87
16331;BME280;8275;48.206;16.340;2023-10-08T03:07:18;99255.59;;;24.60;25.84
16331;BME280;8275;48.206;16.340;2023-10-08T03:10:02;99250.00;;;24.60;25.98
16331;BME280;8275;48.206;16.340;2023-10-08T03:12:34;99246.38;;;24.60;25.97
16331;BME280;8275;48.206;16.340;2023-10-08T03:15:04;99245.91;;;24.58;26.10
16331;BME280;8275;48.206;16.340;2023-10-08T03:17:41;99240.31;;;24.58;25.96
16331;BME280;8275;48.206;16.340;2023-10-08T03:20:17;99244.63;;;24.55;26.12
16331;BME280;8275;48.206;16.340;2023-10-08T03:23:06;99244.50;;;24.52;26.30
16331;BME280;8275;48.206;16.340;2023-10-08T03:25:42;99246.34;;;24.48;26.37
16331;BME280;8275;48.206;16.340;2023-10-08T03:28:13;99249.88;;;24.45;26.42
16331;BME280;8275;48.206;16.340;2023-10-08T03:30:44;99242.16;;;24.41;26.36
16331;BME280;8275;48.206;16.340;2023-10-08T03:33:18;99235.63;;;24.37;26.60
16331;BME280;8275;48.206;16.340;2023-10-08T03:35:52;99233.88;;;24.33;26.69
16331;BME280;8275;48.206;16.340;2023-10-08T03:38:23;99233.72;;;24.29;26.72
16331;BME280;8275;48.206;16.340;2023-10-08T03:41:08;99239.22;;;24.26;26.79
16331;BME280;8275;48.206;16.340;2023-10-08T03:43:43;99237.09;;;24.23;27.03
16331;BME280;8275;48.206;16.340;2023-10-08T03:46:20;99242.59;;;24.19;27.25
16331;BME280;8275;48.206;16.340;2023-10-08T03:48:51;99248.88;;;24.16;27.15
16331;BME280;8275;48.206;16.340;2023-10-08T03:51:19;99245.16;;;24.12;27.28
16331;BME280;8275;48.206;16.340;2023-10-08T03:53:48;99239.06;;;24.10;27.31
16331;BME280;8275;48.206;16.340;2023-10-08T03:56:28;99237.59;;;24.04;27.42
16331;BME280;8275;48.206;16.340;2023-10-08T03:58:59;99264.66;;;24.00;27.36
16331;BME280;8275;48.206;16.340;2023-10-08T04:01:30;99258.59;;;23.98;27.41
16331;BME280;8275;48.206;16.340;2023-10-08T04:04:00;99263.25;;;23.94;27.56
16331;BME280;8275;48.206;16.340;2023-10-08T04:06:29;99269.16;;;23.93;27.58
16331;BME280;8275;48.206;16.340;2023-10-08T04:09:05;99276.75;;;23.92;27.70
16331;BME280;8275;48.206;16.340;2023-10-08T04:11:49;99265.22;;;23.94;27.67
16331;BME280;8275;48.206;16.340;2023-10-08T04:14:25;99269.31;;;23.96;27.74
16331;BME280;8275;48.206;16.340;2023-10-08T04:16:55;99260.56;;;23.98;27.53
16331;BME280;8275;48.206;16.340;2023-10-08T04:19:23;99251.03;;;23.99;27.72
16331;BME280;8275;48.206;16.340;2023-10-08T04:21:55;99239.13;;;24.02;27.89
16331;BME280;8275;48.206;16.340;2023-10-08T04:24:25;99228.38;;;24.04;27.59
16331;BME280;8275;48.206;16.340;2023-10-08T04:26:58;99226.13;;;24.06;27.67
16331;BME280;8275;48.206;16.340;2023-10-08T04:29:26;99237.31;;;24.06;27.87
16331;BME280;8275;48.206;16.340;2023-10-08T04:31:59;99233.66;;;24.05;27.69
16331;BME280;8275;48.206;16.340;2023-10-08T04:34:36;99236.00;;;24.03;27.80
16331;BME280;8275;48.206;16.340;2023-10-08T04:37:04;99230.72;;;24.02;27.88
16331;BME280;8275;48.206;16.340;2023-10-08T04:39:40;99232.22;;;23.99;27.81
16331;BME280;8275;48.206;16.340;2023-10-08T04:42:16;99224.53;;;23.96;28.00
16331;BME280;8275;48.206;16.340;2023-10-08T04:44:53;99228.03;;;23.93;27.91
16331;BME280;8275;48.206;16.340;2023-10-08T04:47:23;99228.03;;;23.93;27.85
16331;BME280;8275;48.206;16.340;2023-10-08T04:50:01;99222.78;;;23.92;28.18
16331;BME280;8275;48.206;16.340;2023-10-08T04:52:33;99220.00;;;23.92;28.58
16331;BME280;8275;48.206;16.340;2023-10-08T04:55:13;99221.28;;;23.94;28.22
16331;BME280;8275;48.206;16.340;2023-10-08T04:57:48;99231.28;;;23.95;28.41
16331;BME280;8275;48.206;16.340;2023-10-08T05:00:17;99238.19;;;23.98;28.41
16331;BME280;8275;48.206;16.340;2023-10-08T05:03:07;99235.53;;;24.01;28.79
16331;BME280;8275;48.206;16.340;2023-10-08T05:05:42;99238.78;;;24.03;28.78
16331;BME280;8275;48.206;16.340;2023-10-08T05:08:33;99238.94;;;24.07;28.77
16331;BME280;8275;48.206;16.340;2023-10-08T05:11:14;99239.75;;;24.07;29.03
16331;BME280;8275;48.206;16.340;2023-10-08T05:13:53;99248.16;;;24.07;28.90
16331;BME280;8275;48.206;16.340;2023-10-08T05:16:33;99256.56;;;24.07;29.12
16331;BME280;8275;48.206;16.340;2023-10-08T05:19:10;99261.31;;;24.07;29.05
16331;BME280;8275;48.206;16.340;2023-10-08T05:22:17;99247.66;;;24.05;29.35
16331;BME280;8275;48.206;16.340;2023-10-08T05:24:49;99262.16;;;24.07;29.04
16331;BME280;8275;48.206;16.340;2023-10-08T05:27:32;99254.22;;;24.09;29.08
16331;BME280;8275;48.206;16.340;2023-10-08T05:30:27;99265.06;;;24.11;29.23
16331;BME280;8275;48.206;16.340;2023-10-08T05:33:06;99261.59;;;24.14;28.98
16331;BME280;8275;48.206;16.340;2023-10-08T05:35:41;99256.81;;;24.14;29.26
16331;BME280;8275;48.206;16.340;2023-10-08T05:38:23;99255.16;;;24.13;29.07
16331;BME280;8275;48.206;16.340;2023-10-08T05:41:05;99271.13;;;24.13;29.22
16331;BME280;8275;48.206;16.340;2023-10-08T05:43:55;99280.72;;;24.12;29.16
16331;BME280;8275;48.206;16.340;2023-10-08T05:46:44;99274.28;;;24.11;29.44
16331;BME280;8275;48.206;16.340;2023-10-08T05:49:34;99272.31;;;24.12;29.37
16331;BME280;8275;48.206;16.340;2023-10-08T05:52:21;99283.50;;;24.12;29.50
16331;BME280;8275;48.206;16.340;2023-10-08T05:55:08;99269.88;;;24.10;29.47
16331;BME280;8275;48.206;16.340;2023-10-08T05:57:43;99277.09;;;24.11;29.44
16331;BME280;8275;48.206;16.340;2023-10-08T06:00:30;99273.47;;;24.11;29.51
16331;BME280;8275;48.206;16.340;2023-10-08T06:03:14;99285.13;;;24.13;29.49
16331;BME280;8275;48.206;16.340;2023-10-08T06:06:05;99282.31;;;24.13;29.71
16331;BME280;8275;48.206;16.340;2023-10-08T06:09:04;99282.31;;;24.13;29.72
16331;BME280;8275;48.206;16.340;2023-10-08T06:11:48;99289.22;;;24.15;29.72
16331;BME280;8275;48.206;16.340;2023-10-08T06:14:38;99286.09;;;24.17;29.52
16331;BME280;8275;48.206;16.340;2023-10-08T06:17:20;99294.59;;;24.20;29.50
16331;BME280;8275;48.206;16.340;2023-10-08T06:20:26;99307.91;;;24.23;29.47
16331;BME280;8275;48.206;16.340;2023-10-08T06:22:57;99310.03;;;24.26;29.53
16331;BME280;8275;48.206;16.340;2023-10-08T06:25:30;99324.16;;;24.30;29.61
16331;BME280;8275;48.206;16.340;2023-10-08T06:27:59;99329.06;;;24.33;29.81
16331;BME280;8275;48.206;16.340;2023-10-08T06:30:30;99325.56;;;24.36;29.79
16331;BME280;8275;48.206;16.340;2023-10-08T06:33:02;99340.53;;;24.40;29.95
16331;BME280;8275;48.206;16.340;2023-10-08T06:35:33;99328.59;;;24.43;29.79
16331;BME280;8275;48.206;16.340;2023-10-08T06:38:03;99320.81;;;24.49;29.79
16331;BME280;8275;48.206;16.340;2023-10-08T06:40:37;99324.22;;;24.54;29.76
16331;BME280;8275;48.206;16.340;2023-10-08T06:43:11;99318.72;;;24.58;29.65
16331;BME280;8275;48.206;16.340;2023-10-08T06:45:43;99326.56;;;24.64;29.69
16331;BME280;8275;48.206;16.340;2023-10-08T06:48:13;99345.13;;;24.69;29.59
16331;BME280;8275;48.206;16.340;2023-10-08T06:50:48;99353.66;;;24.72;29.53
16331;BME280;8275;48.206;16.340;2023-10-08T06:53:17;99355.47;;;24.77;29.57
16331;BME280;8275;48.206;16.340;2023-10-08T06:55:46;99348.81;;;24.81;29.54
16331;BME280;8275;48.206;16.340;2023-10-08T06:58:22;99357.78;;;24.87;29.68
16331;BME280;8275;48.206;16.340;2023-10-08T07:00:51;99376.72;;;24.90;29.49
16331;BME280;8275;48.206;16.340;2023-10-08T07:03:22;99370.91;;;24.95;29.48
16331;BME280;8275;48.206;16.340;2023-10-08T07:05:54;99379.09;;;25.00;29.28
16331;BME280;8275;48.206;16.340;2023-10-08T07:08:29;99366.09;;;25.07;29.41
16331;BME280;8275;48.206;16.340;2023-10-08T07:11:00;99365.53;;;25.14;29.32
16331;BME280;8275;48.206;16.340;2023-10-08T07:13:33;99373.09;;;25.26;29.29
16331;BME280;8275;48.206;16.340;2023-10-08T07:16:04;99364.94;;;25.33;29.07
16331;BME280;8275;48.206;16.340;2023-10-08T07:18:39;99363.53;;;25.39;29.18
16331;BME280;8275;48.206;16.340;2023-10-08T07:21:11;99356.91;;;25.43;29.15
16331;BME280;8275;48.206;16.340;2023-10-08T07:23:40;99354.66;;;25.49;29.15
16331;BME280;8275;48.206;16.340;2023-10-08T07:26:25;99360.03;;;25.54;28.93
16331;BME280;8275;48.206;16.340;2023-10-08T07:29:05;99355.34;;;25.58;29.08
16331;BME280;8275;48.206;16.340;2023-10-08T07:31:37;99357.00;;;25.59;28.86
16331;BME280;8275;48.206;16.340;2023-10-08T07:34:09;99353.50;;;25.62;29.08
16331;BME280;8275;48.206;16.340;2023-10-08T07:36:55;99357.69;;;25.68;28.77
16331;BME280;8275;48.206;16.340;2023-10-08T07:39:23;99346.66;;;25.75;28.71
16331;BME280;8275;48.206;16.340;2023-10-08T07:42:04;99354.16;;;25.83;28.85
16331;BME280;8275;48.206;16.340;2023-10-08T07:44:35;99355.97;;;25.91;28.64
16331;BME280;8275;48.206;16.340;2023-10-08T07:47:06;99348.13;;;25.97;28.81
16331;BME280;8275;48.206;16.340;2023-10-08T07:49:37;99374.78;;;26.03;28.53
16331;BME280;8275;48.206;16.340;2023-10-08T07:52:07;99379.78;;;26.09;28.43
16331;BME280;8275;48.206;16.340;2023-10-08T07:54:36;99394.19;;;26.20;28.67
16331;BME280;8275;48.206;16.340;2023-10-08T07:57:04;99412.16;;;26.31;28.40
16331;BME280;8275;48.206;16.340;2023-10-08T07:59:42;99413.97;;;26.39;28.40
16331;BME280;8275;48.206;16.340;2023-10-08T08:02:15;99421.91;;;26.49;28.43
16331;BME280;8275;48.206;16.340;2023-10-08T08:04:51;99411.22;;;26.55;28.39
16331;BME280;8275;48.206;16.340;2023-10-08T08:07:22;99420.94;;;26.57;28.00
16331;BME280;8275;48.206;16.340;2023-10-08T08:09:52;99422.56;;;26.58;28.21
16331;BME280;8275;48.206;16.340;2023-10-08T08:12:27;99431.09;;;26.62;27.99
16331;BME280;8275;48.206;16.340;2023-10-08T08:15:00;99430.75;;;26.63;28.30
16331;BME280;8275;48.206;16.340;2023-10-08T08:17:30;99451.94;;;26.61;28.29
16331;BME280;8275;48.206;16.340;2023-10-08T08:20:00;99451.38;;;26.55;28.26
16331;BME280;8275;48.206;16.340;2023-10-08T08:22:46;99440.75;;;26.48;28.17
16331;BME280;8275;48.206;16.340;2023-10-08T08:25:17;99437.84;;;26.45;28.47
16331;BME280;8275;48.206;16.340;2023-10-08T08:28:01;99451.69;;;26.38;28.45
16331;BME280;8275;48.206;16.340;2023-10-08T08:30:33;99451.94;;;26.33;28.85
16331;BME280;8275;48.206;16.340;2023-10-08T08:33:04;99452.31;;;26.31;28.76
16331;BME280;8275;48.206;16.340;2023-10-08T08:35:38;99446.69;;;26.31;29.05
16331;BME280;8275;48.206;16.340;2023-10-08T08:38:08;99455.44;;;26.30;28.82
16331;BME280;8275;48.206;16.340;2023-10-08T08:40:37;99455.81;;;26.28;28.94
16331;BME280;8275;48.206;16.340;2023-10-08T08:43:08;99461.31;;;26.25;29.47
16331;BME280;8275;48.206;16.340;2023-10-08T08:45:38;99465.66;;;26.22;29.42
16331;BME280;8275;48.206;16.340;2023-10-08T08:48:07;99470.34;;;26.18;29.43
16331;BME280;8275;48.206;16.340;2023-10-08T08:50:37;99487.19;;;26.18;29.46
16331;BME280;8275;48.206;16.340;2023-10-08T08:53:08;99484.16;;;26.11;29.98
16331;BME280;8275;48.206;16.340;2023-10-08T08:55:36;99482.38;;;26.07;29.99
16331;BME280;8275;48.206;16.340;2023-10-08T08:58:06;99489.88;;;26.03;30.03
16331;BME280;8275;48.206;16.340;2023-10-08T09:00:38;99505.44;;;26.00;30.71
16331;BME280;8275;48.206;16.340;2023-10-08T09:03:08;99541.84;;;25.97;31.65
16331;BME280;8275;48.206;16.340;2023-10-08T09:05:40;99519.72;;;25.95;32.21
16331;BME280;8275;48.206;16.340;2023-10-08T09:08:11;99553.63;;;25.90;32.64
16331;BME280;8275;48.206;16.340;2023-10-08T09:10:39;99579.38;;;25.80;32.64
16331;BME280;8275;48.206;16.340;2023-10-08T09:13:20;99569.66;;;25.65;32.84
16331;BME280;8275;48.206;16.340;2023-10-08T09:15:49;99590.44;;;25.52;32.90
16331;BME280;8275;48.206;16.340;2023-10-08T09:18:23;99619.09;;;25.37;33.17
16331;BME280;8275;48.206;16.340;2023-10-08T09:20:54;99612.66;;;25.25;33.42
16331;BME280;8275;48.206;16.340;2023-10-08T09:23:25;99610.16;;;25.11;33.50
16331;BME280;8275;48.206;16.340;2023-10-08T09:25:53;99621.75;;;25.01;33.57
16331;BME280;8275;48.206;16.340;2023-10-08T09:28:31;99638.50;;;24.89;33.75
16331;BME280;8275;48.206;16.340;2023-10-08T09:31:03;99638.94;;;24.79;33.78
16331;BME280;8275;48.206;16.340;2023-10-08T09:33:32;99644.91;;;24.69;33.96
16331;BME280;8275;48.206;16.340;2023-10-08T09:36:01;99650.56;;;24.60;33.94
16331;BME280;8275;48.206;16.340;2023-10-08T09:38:36;99648.50;;;24.49;34.28
16331;BME280;8275;48.206;16.340;2023-10-08T09:41:05;99662.22;;;24.41;34.30
16331;BME280;8275;48.206;16.340;2023-10-08T09:43:35;99661.09;;;24.34;34.46
16331;BME280;8275;48.206;16.340;2023-10-08T09:46:12;99681.91;;;24.24;34.51
16331;BME280;8275;48.206;16.340;2023-10-08T09:48:46;99685.56;;;24.16;34.53
16331;BME280;8275;48.206;16.340;2023-10-08T09:51:16;99707.00;;;24.12;34.55
16331;BME280;8275;48.206;16.340;2023-10-08T09:53:58;99700.09;;;24.01;34.84
16331;BME280;8275;48.206;16.340;2023-10-08T09:56:32;99705.06;;;23.96;34.75
16331;BME280;8275;48.206;16.340;2023-10-08T09:59:01;99725.16;;;23.89;34.86
16331;BME280;8275;48.206;16.340;2023-10-08T10:01:31;99722.34;;;23.81;34.98
16331;BME280;8275;48.206;16.340;2023-10-08T10:04:00;99745.25;;;23.74;34.68
16331;BME280;8275;48.206;16.340;2023-10-08T10:06:28;99736.41;;;23.63;34.76
16331;BME280;8275;48.206;16.340;2023-10-08T10:09:00;99754.19;;;23.50;34.91
16331;BME280;8275;48.206;16.340;2023-10-08T10:11:31;99757.31;;;23.40;35.19
16331;BME280;8275;48.206;16.340;2023-10-08T10:14:02;99752.34;;;23.29;35.21
16331;BME280;8275;48.206;16.340;2023-10-08T10:16:36;99760.06;;;23.15;35.05
16331;BME280;8275;48.206;16.340;2023-10-08T10:19:07;99770.59;;;23.09;34.99
16331;BME280;8275;48.206;16.340;2023-10-08T10:21:44;99766.28;;;23.03;35.77
16331;BME280;8275;48.206;16.340;2023-10-08T10:24:32;99782.22;;;22.94;35.78
16331;BME280;8275;48.206;16.340;2023-10-08T10:27:15;99793.03;;;22.87;36.02
16331;BME280;8275;48.206;16.340;2023-10-08T10:29:45;99803.84;;;22.80;35.93
16331;BME280;8275;48.206;16.340;2023-10-08T10:32:15;99798.25;;;22.71;35.87
16331;BME280;8275;48.206;16.340;2023-10-08T10:34:46;99794.94;;;22.61;36.36
16331;BME280;8275;48.206;16.340;2023-10-08T10:37:19;99813.06;;;22.50;36.19
16331;BME280;8275;48.206;16.340;2023-10-08T10:39:55;99809.75;;;22.39;36.79
16331;BME280;8275;48.206;16.340;2023-10-08T10:42:27;99820.88;;;22.30;36.53
16331;BME280;8275;48.206;16.340;2023-10-08T10:44:56;99828.06;;;22.23;36.83
16331;BME280;8275;48.206;16.340;2023-10-08T10:47:26;99836.69;;;22.13;37.55
16331;BME280;8275;48.206;16.340;2023-10-08T10:49:55;99846.34;;;22.07;37.01
16331;BME280;8275;48.206;16.340;2023-10-08T10:52:44;99855.16;;;22.00;37.24
16331;BME280;8275;48.206;16.340;2023-10-08T10:55:22;99849.19;;;21.93;37.70
16331;BME280;8275;48.206;16.340;2023-10-08T10:57:59;99837.31;;;21.88;37.73
16331;BME280;8275;48.206;16.340;2023-10-08T11:00:42;99840.03;;;21.79;37.59
16331;BME280;8275;48.206;16.340;2023-10-08T11:03:24;99854.41;;;21.73;37.79
16331;BME280;8275;48.206;16.340;2023-10-08T11:05:57;99870.75;;;21.65;37.96
16331;BME280;8275;48.206;16.340;2023-10-08T11:08:33;99885.66;;;21.61;38.23
16331;BME280;8275;48.206;16.340;2023-10-08T11:11:06;99888.03;;;21.54;38.21
16331;BME280;8275;48.206;16.340;2023-10-08T11:13:37;99891.75;;;21.49;38.51
16331;BME280;8275;48.206;16.340;2023-10-08T11:16:08;99904.97;;;21.44;38.73
16331;BME280;8275;48.206;16.340;2023-10-08T11:18:45;99913.25;;;21.35;38.69
16331;BME280;8275;48.206;16.340;2023-10-08T11:21:18;99910.56;;;21.30;38.52
16331;BME280;8275;48.206;16.340;2023-10-08T11:23:52;99913.78;;;21.24;38.80
16331;BME280;8275;48.206;16.340;2023-10-08T11:26:25;99896.34;;;21.18;38.82
16331;BME280;8275;48.206;16.340;2023-10-08T11:29:02;99890.56;;;21.15;39.02
16331;BME280;8275;48.206;16.340;2023-10-08T11:31:32;99886.44;;;21.12;39.06
16331;BME280;8275;48.206;16.340;2023-10-08T11:34:03;99894.28;;;21.10;39.40
16331;BME280;8275;48.206;16.340;2023-10-08T11:36:37;99910.50;;;21.08;39.18
16331;BME280;8275;48.206;16.340;2023-10-08T11:39:17;99906.75;;;20.99;39.46
16331;BME280;8275;48.206;16.340;2023-10-08T11:42:00;99918.09;;;20.89;39.20
16331;BME280;8275;48.206;16.340;2023-10-08T11:44:34;99914.38;;;20.80;39.44
16331;BME280;8275;48.206;16.340;2023-10-08T11:47:05;99923.44;;;20.72;39.64
16331;BME280;8275;48.206;16.340;2023-10-08T11:49:40;99917.22;;;20.61;39.79
16331;BME280;8275;48.206;16.340;2023-10-08T11:52:15;99932.66;;;20.54;39.96
16331;BME280;8275;48.206;16.340;2023-10-08T11:54:47;99930.28;;;20.47;40.14
16331;BME280;8275;48.206;16.340;2023-10-08T11:57:17;99927.06;;;20.40;40.71
16331;BME280;8275;48.206;16.340;2023-10-08T11:59:50;99928.59;;;20.33;40.72
16331;BME280;8275;48.206;16.340;2023-10-08T12:02:23;99927.84;;;20.27;40.68
16331;BME280;8275;48.206;16.340;2023-10-08T12:04:51;99936.00;;;20.23;40.77
16331;BME280;8275;48.206;16.340;2023-10-08T12:07:20;99932.44;;;20.18;40.70
16331;BME280;8275;48.206;16.340;2023-10-08T12:09:55;99946.13;;;20.14;40.65
16331;BME280;8275;48.206;16.340;2023-10-08T12:12:25;99952.88;;;20.08;40.66
16331;BME280;8275;48.206;16.340;2023-10-08T12:14:55;99955.75;;;20.03;40.88
16331;BME280;8275;48.206;16.340;2023-10-08T12:17:24;99953.88;;;19.99;40.63
16331;BME280;8275;48.206;16.340;2023-10-08T12:20:07;99963.94;;;19.95;40.62
16331;BME280;8275;48.206;16.340;2023-10-08T12:22:51;99975.06;;;19.95;40.52
16331;BME280;8275;48.206;16.340;2023-10-08T12:25:19;99976.88;;;19.86;40.74
16331;BME280;8275;48.206;16.340;2023-10-08T12:27:51;99984.31;;;19.72;40.70
16331;BME280;8275;48.206;16.340;2023-10-08T12:30:19;99988.94;;;19.57;40.63
16331;BME280;8275;48.206;16.340;2023-10-08T12:32:59;99987.72;;;19.45;41.22
16331;BME280;8275;48.206;16.340;2023-10-08T12:35:28;99984.50;;;19.33;41.52
16331;BME280;8275;48.206;16.340;2023-10-08T12:37:57;99977.69;;;19.20;42.59
16331;BME280;8275;48.206;16.340;2023-10-08T12:40:26;99984.50;;;19.09;42.73
16331;BME280;8275;48.206;16.340;2023-10-08T12:43:12;99993.28;;;18.92;43.01
16331;BME280;8275;48.206;16.340;2023-10-08T12:45:41;99985.91;;;18.83;43.10
16331;BME280;8275;48.206;16.340;2023-10-08T12:48:12;99989.59;;;18.73;43.71
16331;BME280;8275;48.206;16.340;2023-10-08T12:50:42;99988.84;;;18.63;44.42
16331;BME280;8275;48.206;16.340;2023-10-08T12:53:11;100001.16;;;18.52;44.56
16331;BME280;8275;48.206;16.340;2023-10-08T12:55:43;99993.19;;;18.40;44.71
16331;BME280;8275;48.206;16.340;2023-10-08T12:58:15;99999.06;;;18.34;44.74
16331;BME280;8275;48.206;16.340;2023-10-08T13:00:45;99998.28;;;18.28;45.21
16331;BME280;8275;48.206;16.340;2023-10-08T13:03:17;99997.19;;;18.24;45.20
16331;BME280;8275;48.206;16.340;2023-10-08T13:05:52;99993.91;;;18.22;45.20
16331;BME280;8275;48.206;16.340;2023-10-08T13:08:22;99998.59;;;18.21;45.28
16331;BME280;8275;48.206;16.340;2023-10-08T13:10:55;99998.34;;;18.23;45.39
16331;BME280;8275;48.206;16.340;2023-10-08T13:13:29;99998.03;;;18.24;45.42
16331;BME280;8275;48.206;16.340;2023-10-08T13:16:01;99997.19;;;18.24;45.56
16331;BME280;8275;48.206;16.340;2023-10-08T13:18:35;99997.16;;;18.29;45.38
16331;BME280;8275;48.206;16.340;2023-10-08T13:21:05;100001.31;;;18.32;45.18
16331;BME280;8275;48.206;16.340;2023-10-08T13:23:37;99995.19;;;18.35;44.71
16331;BME280;8275;48.206;16.340;2023-10-08T13:26:07;100006.22;;;18.40;44.59
16331;BME280;8275;48.206;16.340;2023-10-08T13:28:39;100003.72;;;18.43;44.23
16331;BME280;8275;48.206;16.340;2023-10-08T13:31:10;100009.53;;;18.47;44.03
16331;BME280;8275;48.206;16.340;2023-10-08T13:33:42;100016.44;;;18.49;43.64
16331;BME280;8275;48.206;16.340;2023-10-08T13:36:17;100019.50;;;18.53;43.37